Terminal Aerodrome Forecast
Issued by NWS Wilmington, OH

Current Version | Previous Version | Text Only | Print | Product List | Glossary Off
Versions: 1 2 3 4 5 6 7 8 9 10 11 12 13 14 15 16 17 18 19 20 21 22 23

000
FTUS41 KILN 302300 RRA
TAFILN
TAF
KILN 302342Z 0100/0124 01004KT P6SM SCT250
      TEMPO 0100/0101 BKN015
     FM010700 VRB02KT 4SM BR OVC012
      TEMPO 0108/0112 2SM BR OVC008
     FM011500 VRB04KT P6SM SKC=

USA.gov is the U.S. government's official web portal to all federal, state and local government web resources and services.